Time;durP1;ratioP1;P1;durP2;ratioP2;P2;SDS_P1;SDS_P2;PMS_P1;PMS_P2;Temp;Humidity;BMP_temperature;BMP_pressure;BME280_temperature;BME280_humidity;BME280_pressure;Samples;Min_cycle;Max_cycle;Signal;HPM_P1;HPM_P2
2022/12/31 00:00:16;;;;;;;25.77;11.45;;;;;;;0.88;100.00;99518.13;5139961;28;20190;-62
2022/12/31 00:02:43;;;;;;;24.20;11.98;;;;;;;1.02;100.00;99519.00;5140087;28;20055;-62
2022/12/31 00:05:10;;;;;;;25.33;12.27;;;;;;;0.90;100.00;99532.94;5137735;28;20062;-62
2022/12/31 00:07:36;;;;;;;22.45;10.90;;;;;;;0.72;100.00;99522.94;5139776;28;20051;-63
2022/12/31 00:10:03;;;;;;;28.90;11.98;;;;;;;0.94;100.00;99498.06;5140116;28;20055;-62
2022/12/31 00:12:29;;;;;;;21.17;10.88;;;;;;;0.98;100.00;99487.50;5139684;28;20058;-62
2022/12/31 00:14:55;;;;;;;27.88;11.88;;;;;;;1.12;100.00;99472.13;5139594;27;20062;-62
2022/12/31 00:17:22;;;;;;;22.73;10.48;;;;;;;1.11;100.00;99478.66;5139535;28;20043;-63
2022/12/31 00:19:48;;;;;;;29.98;12.02;;;;;;;1.09;100.00;99491.63;5140102;28;20364;-63
2022/12/31 00:22:15;;;;;;;23.83;11.45;;;;;;;0.90;100.00;99473.56;5139553;28;20080;-64
2022/12/31 00:24:41;;;;;;;37.30;12.82;;;;;;;1.08;100.00;99473.81;5139993;27;20043;-62
2022/12/31 00:27:08;;;;;;;23.45;13.20;;;;;;;1.06;100.00;99482.22;5139538;28;20061;-64
2022/12/31 00:29:34;;;;;;;28.55;12.05;;;;;;;1.09;100.00;99489.72;5138693;27;20047;-64
2022/12/31 00:32:00;;;;;;;37.22;12.65;;;;;;;1.04;100.00;99516.03;5139644;27;20059;-62
2022/12/31 00:34:26;;;;;;;24.25;11.43;;;;;;;0.96;100.00;99530.97;5139406;28;20054;-64
2022/12/31 00:36:52;;;;;;;34.72;15.73;;;;;;;0.94;100.00;99554.75;5139305;28;20145;-62
2022/12/31 00:39:19;;;;;;;62.88;22.77;;;;;;;0.90;100.00;99559.13;5139320;28;20061;-64
2022/12/31 00:41:46;;;;;;;49.53;15.93;;;;;;;0.87;100.00;99584.81;5139460;28;20358;-63
2022/12/31 00:44:14;;;;;;;36.42;15.00;;;;;;;0.85;100.00;99588.91;5139378;28;20055;-63
2022/12/31 00:46:41;;;;;;;39.95;13.07;;;;;;;0.80;100.00;99599.75;5139469;27;20134;-62
2022/12/31 00:49:07;;;;;;;27.45;12.43;;;;;;;0.76;100.00;99610.31;5139219;28;20043;-64
2022/12/31 00:51:33;;;;;;;25.95;11.40;;;;;;;0.58;100.00;99628.06;5139475;28;20047;-61
2022/12/31 00:54:00;;;;;;;26.48;12.95;;;;;;;0.73;100.00;99613.59;5139035;28;20047;-64
2022/12/31 00:56:29;;;;;;;28.20;12.63;;;;;;;0.74;100.00;99617.91;5139486;28;20043;-64
2022/12/31 00:58:55;;;;;;;26.30;12.75;;;;;;;0.75;100.00;99621.41;5138847;27;20062;-62
2022/12/31 01:01:24;;;;;;;26.08;12.20;;;;;;;0.72;100.00;99611.97;5138924;28;20058;-61
2022/12/31 01:03:53;;;;;;;25.30;12.38;;;;;;;0.84;100.00;99604.28;5139025;28;20057;-63
2022/12/31 01:06:19;;;;;;;33.03;13.38;;;;;;;0.76;100.00;99610.31;5139100;28;20062;-61
2022/12/31 01:08:48;;;;;;;28.90;11.25;;;;;;;0.74;100.00;99607.13;5138971;27;20055;-63
2022/12/31 01:11:27;;;;;;;27.35;11.80;;;;;;;0.77;100.00;99595.75;5138908;28;20051;-61
2022/12/31 01:13:56;;;;;;;26.77;11.60;;;;;;;0.52;100.00;99609.53;5139092;27;20051;-64
2022/12/31 01:16:25;;;;;;;23.83;11.70;;;;;;;0.65;100.00;99608.84;5138747;28;20051;-61
2022/12/31 01:18:52;;;;;;;53.85;18.90;;;;;;;0.59;100.00;99615.38;5139028;28;20066;-63
2022/12/31 01:21:19;;;;;;;105.95;38.47;;;;;;;0.59;100.00;99618.88;5138660;28;20137;-63
2022/12/31 01:23:45;;;;;;;93.05;34.95;;;;;;;0.51;100.00;99632.22;5138564;28;20047;-61
2022/12/31 01:26:13;;;;;;;81.90;32.35;;;;;;;0.39;100.00;99630.69;5138824;27;20119;-63
2022/12/31 01:28:40;;;;;;;32.85;13.88;;;;;;;0.26;100.00;99623.28;5138467;28;20055;-62
2022/12/31 01:31:08;;;;;;;31.05;13.43;;;;;;;0.31;100.00;99611.66;5138772;28;20047;-63
2022/12/31 01:33:35;;;;;;;33.58;14.65;;;;;;;0.25;100.00;99604.72;5138335;28;20051;-61
2022/12/31 01:36:02;;;;;;;35.83;12.90;;;;;;;0.34;100.00;99608.38;5138650;28;20047;-61
2022/12/31 01:38:28;;;;;;;40.40;17.50;;;;;;;0.28;100.00;99604.13;5138442;28;20055;-64
2022/12/31 01:40:55;;;;;;;34.42;16.33;;;;;;;0.34;100.00;99603.78;5138408;27;20423;-62
2022/12/31 01:43:21;;;;;;;53.08;20.65;;;;;;;0.28;100.00;99604.94;5138340;28;20509;-63
2022/12/31 01:45:52;;;;;;;38.60;19.17;;;;;;;0.18;100.00;99602.34;5138793;27;20054;-63
2022/12/31 01:48:24;;;;;;;52.53;22.55;;;;;;;0.27;100.00;99594.41;5138210;28;20051;-64
2022/12/31 01:50:51;;;;;;;44.38;19.30;;;;;;;0.15;100.00;99594.81;5138405;28;20051;-62
2022/12/31 01:53:18;;;;;;;61.13;23.02;;;;;;;0.28;100.00;99569.06;5138430;28;20137;-61
2022/12/31 01:55:48;;;;;;;64.07;24.58;;;;;;;0.09;100.00;99583.28;5138068;28;20051;-62
2022/12/31 01:58:19;;;;;;;66.65;27.75;;;;;;;0.41;100.00;99561.09;5138128;28;20051;-61
2022/12/31 02:00:46;;;;;;;143.05;46.58;;;;;;;0.52;100.00;99571.75;5138138;28;20051;-64
2022/12/31 02:03:13;;;;;;;71.97;28.35;;;;;;;0.66;100.00;99564.56;5138143;28;20051;-63
2022/12/31 02:05:46;;;;;;;73.55;27.17;;;;;;;0.45;100.00;99577.50;5138021;28;20336;-64
2022/12/31 02:08:12;;;;;;;58.55;24.67;;;;;;;0.72;100.00;99560.72;5138302;27;20051;-62
2022/12/31 02:10:38;;;;;;;42.40;19.63;;;;;;;0.58;100.00;99566.03;5137798;28;20050;-63
2022/12/31 02:13:05;;;;;;;54.10;22.27;;;;;;;0.84;100.00;99549.50;5138262;27;20054;-61
2022/12/31 02:15:47;;;;;;;59.00;20.13;;;;;;;0.80;100.00;99549.28;5137747;28;20438;-63
2022/12/31 02:18:23;;;;;;;46.78;18.15;;;;;;;0.61;100.00;99553.84;5137574;28;20047;-61
2022/12/31 02:21:14;;;;;;;113.72;17.05;;;;;;;0.74;100.00;99539.66;5137776;28;20053;-61
2022/12/31 02:24:13;;;;;;;104.40;17.10;;;;;;;1.07;100.00;99512.75;5128793;28;20055;-64
2022/12/31 02:26:53;;;;;;;66.43;16.77;;;;;;;1.02;100.00;99523.59;5137987;28;20047;-64
2022/12/31 02:29:56;;;;;;;55.10;15.85;;;;;;;0.97;100.00;99510.16;5137657;28;20093;-64
2022/12/31 02:32:29;;;;;;;65.60;16.00;;;;;;;1.08;100.00;99503.53;5137089;28;20047;-63
2022/12/31 02:35:00;;;;;;;44.58;15.48;;;;;;;1.17;100.00;99499.06;5137802;28;20092;-63
2022/12/31 02:37:29;;;;;;;57.30;14.55;;;;;;;1.29;100.00;99504.00;5137311;28;20051;-64
2022/12/31 02:39:56;;;;;;;64.78;16.90;;;;;;;1.31;100.00;99516.13;5137902;28;20369;-64
2022/12/31 02:42:23;;;;;;;60.20;16.73;;;;;;;1.41;100.00;99518.66;5137396;28;20422;-61
2022/12/31 02:44:49;;;;;;;74.22;15.23;;;;;;;0.81;100.00;99526.59;5137334;28;20515;-64
2022/12/31 02:47:26;;;;;;;80.68;17.20;;;;;;;1.17;100.00;99505.28;5137359;28;20066;-61
2022/12/31 02:50:04;;;;;;;62.65;14.25;;;;;;;1.32;100.00;99517.72;5137476;28;20124;-64
2022/12/31 02:52:45;;;;;;;74.28;16.75;;;;;;;1.26;100.00;99529.69;5136615;27;20116;-62
2022/12/31 02:55:18;;;;;;;82.30;17.58;;;;;;;1.10;100.00;99544.53;5137189;28;20133;-64
2022/12/31 02:57:53;;;;;;;47.30;17.75;;;;;;;1.37;100.00;99539.25;5137553;28;20059;-62
2022/12/31 03:03:07;;;;;;;62.28;17.05;;;;;;;1.54;100.00;99556.84;5137186;28;20070;-61
2022/12/31 03:05:39;;;;;;;83.13;20.05;;;;;;;1.49;100.00;99562.31;5137443;28;20047;-62
2022/12/31 03:08:05;;;;;;;87.78;19.05;;;;;;;1.47;100.00;99570.72;5137063;28;20154;-61
2022/12/31 03:10:32;;;;;;;66.57;19.77;;;;;;;1.25;100.00;99576.72;5137277;28;20046;-64
2022/12/31 03:12:58;;;;;;;54.53;17.90;;;;;;;0.82;100.00;99562.47;5137092;28;20167;-61
2022/12/31 03:15:26;;;;;;;61.22;17.75;;;;;;;0.75;100.00;99537.75;5137322;27;20058;-64
2022/12/31 03:17:57;;;;;;;55.05;19.00;;;;;;;0.98;100.00;99504.47;5136876;28;20401;-64
2022/12/31 03:23:15;;;;;;;59.72;14.57;;;;;;;0.59;100.00;99485.88;5136977;28;20104;-61
2022/12/31 03:25:42;;;;;;;45.30;14.57;;;;;;;0.73;100.00;99453.56;5137100;28;20047;-62
2022/12/31 03:28:12;;;;;;;62.13;14.32;;;;;;;0.99;100.00;99444.00;5136962;28;20128;-64
2022/12/31 03:30:40;;;;;;;40.05;13.13;;;;;;;0.88;100.00;99445.25;5136748;28;20134;-62
2022/12/31 03:33:07;;;;;;;41.03;13.32;;;;;;;1.01;100.00;99449.91;5136926;28;20464;-63
2022/12/31 03:35:36;;;;;;;34.53;13.60;;;;;;;0.66;100.00;99462.03;5136819;28;20047;-63
2022/12/31 03:38:03;;;;;;;26.52;14.20;;;;;;;0.68;100.00;99443.66;5137028;28;20059;-62
2022/12/31 03:40:33;;;;;;;28.50;13.90;;;;;;;0.77;100.00;99420.31;5136655;28;20047;-62
2022/12/31 03:42:59;;;;;;;48.08;14.63;;;;;;;0.70;100.00;99425.28;5137110;28;20047;-62
2022/12/31 03:45:25;;;;;;;43.95;14.00;;;;;;;0.74;100.00;99420.91;5136526;28;20051;-63
2022/12/31 03:47:52;;;;;;;46.72;13.70;;;;;;;0.84;100.00;99403.75;5136518;28;20093;-62
2022/12/31 03:50:19;;;;;;;91.97;13.18;;;;;;;0.35;100.00;99410.41;5136842;28;20116;-64
2022/12/31 03:52:45;;;;;;;42.42;10.35;;;;;;;0.41;100.00;99393.06;5136479;28;20145;-61
2022/12/31 03:55:12;;;;;;;44.10;12.05;;;;;;;0.50;100.00;99382.41;5136599;28;20051;-64
2022/12/31 03:57:39;;;;;;;44.95;11.63;;;;;;;0.37;100.00;99384.75;5136530;28;20055;-64
2022/12/31 04:00:08;;;;;;;23.52;10.73;;;;;;;0.33;100.00;99378.31;5136626;28;20099;-62
2022/12/31 04:02:35;;;;;;;25.42;11.73;;;;;;;0.74;100.00;99360.75;5136403;28;20047;-62
2022/12/31 04:05:01;;;;;;;25.15;11.15;;;;;;;0.77;100.00;99370.91;5139907;27;20049;-64
2022/12/31 04:07:27;;;;;;;26.17;10.70;;;;;;;0.84;100.00;99368.66;5139916;28;20332;-62
2022/12/31 04:09:53;;;;;;;35.00;11.63;;;;;;;0.52;100.00;99378.31;5140178;27;20047;-63
2022/12/31 04:12:20;;;;;;;16.30;9.35;;;;;;;0.29;100.00;99365.72;5139803;28;20251;-62
2022/12/31 04:14:47;;;;;;;31.90;10.35;;;;;;;0.35;100.00;99357.28;5139553;28;20082;-63
2022/12/31 04:17:13;;;;;;;17.00;8.70;;;;;;;0.17;100.00;99358.88;5139650;27;20054;-61
2022/12/31 04:19:39;;;;;;;24.98;10.70;;;;;;;0.43;100.00;99362.03;5139883;28;20401;-64
2022/12/31 04:22:06;;;;;;;32.47;10.68;;;;;;;0.43;100.00;99370.13;5139647;28;20137;-62
2022/12/31 04:24:32;;;;;;;18.67;10.48;;;;;;;0.32;100.00;99384.03;5139550;28;20141;-61
2022/12/31 04:26:59;;;;;;;34.47;10.70;;;;;;;0.37;100.00;99387.47;5139603;27;20115;-64
2022/12/31 04:29:25;;;;;;;31.83;10.07;;;;;;;0.50;100.00;99394.03;5139433;28;20079;-64
2022/12/31 04:31:52;;;;;;;50.00;10.10;;;;;;;0.42;100.00;99402.75;5139713;28;20043;-61
2022/12/31 04:34:18;;;;;;;21.58;9.02;;;;;;;0.43;100.00;99424.06;5139533;28;20050;-63
2022/12/31 04:36:44;;;;;;;29.98;9.75;;;;;;;0.57;100.00;99426.81;5139852;28;20378;-62
2022/12/31 04:39:10;;;;;;;25.83;8.95;;;;;;;0.77;100.00;99425.72;5139215;28;20058;-64
2022/12/31 04:41:37;;;;;;;28.73;10.10;;;;;;;0.68;100.00;99432.88;5139788;28;20139;-62
2022/12/31 04:44:03;;;;;;;25.27;10.25;;;;;;;0.58;100.00;99458.09;5139163;28;20047;-64
2022/12/31 04:46:31;;;;;;;26.08;10.05;;;;;;;0.43;100.00;99469.09;5139288;28;20054;-61
2022/12/31 04:48:59;;;;;;;27.92;10.38;;;;;;;0.33;100.00;99464.63;5139253;28;20051;-62
2022/12/31 04:51:27;;;;;;;21.20;9.75;;;;;;;0.04;100.00;99472.81;5139088;28;20047;-62
2022/12/31 04:53:53;;;;;;;23.90;10.85;;;;;;;0.51;100.00;99448.78;5139464;28;20047;-63
2022/12/31 04:56:20;;;;;;;18.02;10.40;;;;;;;0.52;100.00;99439.56;5139065;28;20444;-62
2022/12/31 04:58:47;;;;;;;33.00;9.82;;;;;;;0.22;100.00;99437.00;5139211;27;20054;-62
2022/12/31 05:01:14;;;;;;;30.42;10.35;;;;;;;-0.02;100.00;99444.31;5139085;28;20308;-61
2022/12/31 05:03:40;;;;;;;42.38;9.95;;;;;;;0.32;100.00;99421.78;5139289;28;20054;-63
2022/12/31 05:06:11;;;;;;;16.35;9.40;;;;;;;0.29;100.00;99419.66;5138929;28;20051;-63
2022/12/31 05:08:37;;;;;;;16.42;9.98;;;;;;;0.20;100.00;99417.63;5139324;27;20457;-63
2022/12/31 05:11:03;;;;;;;30.88;11.00;;;;;;;-0.02;100.00;99430.84;5139064;28;20047;-62
2022/12/31 05:13:29;;;;;;;26.63;11.35;;;;;;;0.27;100.00;99411.03;5138772;28;20404;-63
2022/12/31 05:15:56;;;;;;;28.05;12.10;;;;;;;0.66;100.00;99414.25;5138123;27;20138;-64
2022/12/31 05:18:22;;;;;;;23.13;11.15;;;;;;;0.39;100.00;99446.50;5138672;28;20111;-62
2022/12/31 05:20:49;;;;;;;30.02;11.57;;;;;;;0.45;100.00;99448.03;5138861;27;20498;-61
2022/12/31 05:23:17;;;;;;;20.90;9.90;;;;;;;0.25;100.00;99453.69;5138601;28;20047;-64
2022/12/31 05:25:45;;;;;;;24.13;11.20;;;;;;;0.24;100.00;99447.50;5138991;28;20050;-64
2022/12/31 05:28:12;;;;;;;20.85;11.13;;;;;;;0.50;100.00;99428.25;5138672;28;20205;-63
2022/12/31 05:30:38;;;;;;;24.13;10.48;;;;;;;0.19;100.00;99436.78;5138423;27;20184;-63
2022/12/31 05:33:06;;;;;;;20.58;10.95;;;;;;;0.51;100.00;99440.69;5138409;28;20051;-63
2022/12/31 05:35:32;;;;;;;23.80;11.63;;;;;;;0.46;100.00;99452.31;5138396;28;20146;-62
2022/12/31 05:37:59;;;;;;;25.08;11.73;;;;;;;0.57;100.00;99459.19;5138230;28;20051;-62
2022/12/31 05:40:26;;;;;;;23.05;11.15;;;;;;;0.61;100.00;99456.72;5138287;28;20522;-62
2022/12/31 05:42:52;;;;;;;24.80;12.02;;;;;;;0.56;100.00;99470.28;5138387;28;20062;-64
2022/12/31 05:45:18;;;;;;;24.35;12.52;;;;;;;0.87;100.00;99457.16;5138554;28;20134;-62
2022/12/31 05:47:45;;;;;;;31.85;11.35;;;;;;;0.38;100.00;99477.25;5138341;27;20058;-64
2022/12/31 05:50:14;;;;;;;29.63;12.68;;;;;;;0.57;100.00;99490.78;5138367;28;20066;-63
2022/12/31 05:52:41;;;;;;;23.55;11.05;;;;;;;0.50;100.00;99495.69;5138596;28;20051;-64
2022/12/31 05:55:07;;;;;;;27.92;11.48;;;;;;;0.49;100.00;99497.59;5138141;28;20409;-64
2022/12/31 05:57:35;;;;;;;25.30;12.15;;;;;;;0.37;100.00;99489.94;5138445;28;20058;-63
2022/12/31 06:00:01;;;;;;;24.13;10.98;;;;;;;0.36;100.00;99472.13;5138073;28;20057;-62
2022/12/31 06:02:27;;;;;;;31.00;12.40;;;;;;;0.21;100.00;99462.38;5138514;27;20043;-63
2022/12/31 06:04:53;;;;;;;29.20;13.00;;;;;;;0.06;100.00;99445.56;5137908;28;20439;-63
2022/12/31 06:07:19;;;;;;;26.58;12.35;;;;;;;0.13;100.00;99427.94;5137933;28;20058;-64
2022/12/31 06:09:46;;;;;;;32.63;14.27;;;;;;;0.53;100.00;99379.91;5138187;28;20084;-62
2022/12/31 06:12:12;;;;;;;33.13;15.50;;;;;;;0.28;100.00;99424.25;5137789;28;20391;-63
2022/12/31 06:14:39;;;;;;;38.95;16.92;;;;;;;0.33;100.00;99410.69;5138141;27;20107;-63
2022/12/31 06:17:05;;;;;;;41.03;16.63;;;;;;;0.07;100.00;99412.13;5137854;28;20078;-64
2022/12/31 06:19:31;;;;;;;33.85;15.27;;;;;;;0.11;100.00;99384.31;5138089;28;20046;-61
2022/12/31 06:21:58;;;;;;;27.35;12.13;;;;;;;0.07;100.00;99396.78;5137722;28;20050;-63
2022/12/31 06:24:24;;;;;;;32.25;15.55;;;;;;;0.26;100.00;99360.91;5137939;28;20055;-63
2022/12/31 06:26:50;;;;;;;22.52;12.15;;;;;;;0.06;100.00;99364.69;5136545;27;20054;-62
2022/12/31 06:29:16;;;;;;;24.90;12.52;;;;;;;0.13;100.00;99354.34;5138002;28;20150;-63
2022/12/31 06:31:43;;;;;;;29.65;11.98;;;;;;;0.11;100.00;99343.06;5137511;28;20054;-62
2022/12/31 06:34:11;;;;;;;30.45;11.95;;;;;;;0.14;100.00;99332.50;5138008;27;20415;-63
2022/12/31 06:36:37;;;;;;;24.23;10.93;;;;;;;0.13;100.00;99327.41;5137792;28;20051;-63
2022/12/31 06:39:03;;;;;;;41.60;12.73;;;;;;;0.08;100.00;99317.50;5137315;28;20047;-62
2022/12/31 06:41:31;;;;;;;27.65;10.52;;;;;;;0.08;100.00;99314.81;5137548;28;20061;-62
2022/12/31 06:43:57;;;;;;;25.17;10.30;;;;;;;0.16;100.00;99299.84;5137325;28;20073;-62
2022/12/31 06:46:23;;;;;;;20.30;10.68;;;;;;;0.25;100.00;99294.59;5137565;28;20051;-64
2022/12/31 06:48:50;;;;;;;18.75;9.35;;;;;;;0.17;100.00;99304.97;5137340;28;20138;-62
2022/12/31 06:51:18;;;;;;;20.23;9.02;;;;;;;0.13;100.00;99303.13;5137555;28;20134;-63
2022/12/31 06:53:45;;;;;;;22.00;10.57;;;;;;;0.23;100.00;99290.31;5137322;28;20070;-62
2022/12/31 06:56:15;;;;;;;20.70;10.43;;;;;;;0.20;100.00;99295.47;5137655;28;20304;-61
2022/12/31 06:58:42;;;;;;;22.35;9.50;;;;;;;0.14;100.00;99302.84;5137105;28;20473;-62
2022/12/31 07:01:26;;;;;;;21.48;9.52;;;;;;;0.25;100.00;99303.50;5137703;28;20452;-64
2022/12/31 07:03:59;;;;;;;19.67;10.02;;;;;;;0.27;100.00;99297.78;5137236;27;20144;-64
2022/12/31 07:06:32;;;;;;;25.67;12.38;;;;;;;0.05;100.00;99310.00;5137292;28;20047;-64
2022/12/31 07:09:06;;;;;;;25.73;13.00;;;;;;;0.22;100.00;99309.47;5137366;28;20107;-62
2022/12/31 07:11:42;;;;;;;27.17;14.60;;;;;;;0.08;100.00;99308.63;5137122;28;20142;-64
2022/12/31 07:14:23;;;;;;;28.95;11.50;;;;;;;0.21;100.00;99311.38;5137356;28;20051;-63
2022/12/31 07:17:02;;;;;;;30.55;13.02;;;;;;;0.25;100.00;99295.41;5136980;28;20083;-63
2022/12/31 07:19:43;;;;;;;22.27;11.23;;;;;;;0.16;100.00;99297.94;5136764;28;20487;-63
2022/12/31 07:22:14;;;;;;;29.50;13.38;;;;;;;0.24;100.00;99301.91;5137236;28;20047;-63
2022/12/31 07:24:41;;;;;;;33.97;15.70;;;;;;;0.26;100.00;99297.00;5137050;28;20142;-62
2022/12/31 07:27:35;;;;;;;38.92;15.93;;;;;;;0.38;100.00;99293.88;5137055;28;20051;-63
2022/12/31 07:30:06;;;;;;;26.10;13.10;;;;;;;0.31;100.00;99310.41;5136821;28;20055;-64
2022/12/31 07:32:47;;;;;;;31.50;13.40;;;;;;;0.19;100.00;99328.94;5137155;28;20051;-64
2022/12/31 07:35:22;;;;;;;25.75;12.18;;;;;;;0.23;100.00;99311.06;5137012;28;20061;-62
2022/12/31 07:38:00;;;;;;;32.47;15.18;;;;;;;0.32;100.00;99316.59;5136623;27;20051;-62
2022/12/31 07:40:32;;;;;;;34.28;16.17;;;;;;;0.64;100.00;99313.13;5140624;28;20043;-61
2022/12/31 07:43:12;;;;;;;36.03;14.63;;;;;;;0.44;100.00;99333.16;5140365;28;20051;-63
2022/12/31 07:45:47;;;;;;;34.33;15.25;;;;;;;0.60;100.00;99333.69;5140580;28;20529;-61
2022/12/31 07:48:23;;;;;;;36.63;17.58;;;;;;;0.57;100.00;99353.19;5140108;28;20065;-64
2022/12/31 07:50:53;;;;;;;21.77;12.07;;;;;;;0.66;100.00;99351.41;5140648;28;20305;-62
2022/12/31 07:53:20;;;;;;;24.55;11.35;;;;;;;0.52;100.00;99353.25;5140456;27;20051;-63
2022/12/31 07:55:47;;;;;;;29.38;11.85;;;;;;;0.68;100.00;99352.72;5140237;28;20134;-62
2022/12/31 07:58:21;;;;;;;30.25;13.10;;;;;;;0.69;100.00;99364.31;5140274;27;20051;-64
2022/12/31 08:00:47;;;;;;;26.75;13.48;;;;;;;0.86;100.00;99366.47;5139923;28;20059;-63
2022/12/31 08:03:24;;;;;;;21.52;12.23;;;;;;;0.61;100.00;99383.88;5140133;28;20465;-62
2022/12/31 08:05:59;;;;;;;31.17;14.82;;;;;;;0.50;100.00;99380.53;5139958;28;20070;-63
2022/12/31 08:08:34;;;;;;;25.30;14.20;;;;;;;0.50;100.00;99368.91;5140331;28;20057;-61
2022/12/31 08:11:11;;;;;;;26.50;14.00;;;;;;;0.68;100.00;99368.09;5139726;28;20088;-64
2022/12/31 08:13:39;;;;;;;26.05;12.13;;;;;;;0.52;100.00;99380.22;5139966;28;20051;-62
2022/12/31 08:16:09;;;;;;;27.48;12.32;;;;;;;0.52;100.00;99374.84;5139820;28;20043;-62
2022/12/31 08:18:36;;;;;;;30.50;12.00;;;;;;;0.65;100.00;99376.78;5139896;28;20055;-62
2022/12/31 08:21:19;;;;;;;26.50;11.50;;;;;;;0.82;100.00;99379.75;5140018;28;20062;-63
2022/12/31 08:23:52;;;;;;;20.83;12.10;;;;;;;0.91;100.00;99380.69;5139595;28;20079;-62
2022/12/31 08:26:28;;;;;;;30.30;12.35;;;;;;;0.94;100.00;99390.09;5140012;28;20047;-62
2022/12/31 08:29:11;;;;;;;21.33;11.32;;;;;;;1.09;100.00;99384.41;5139473;28;20061;-61
2022/12/31 08:31:48;;;;;;;25.35;11.45;;;;;;;0.75;100.00;99416.31;5139588;28;20111;-63
2022/12/31 08:34:22;;;;;;;26.60;11.27;;;;;;;0.83;100.00;99405.63;5139575;27;20388;-62
2022/12/31 08:36:55;;;;;;;22.35;10.63;;;;;;;0.83;100.00;99405.63;5139749;28;20051;-62
2022/12/31 08:39:35;;;;;;;24.48;12.25;;;;;;;0.85;100.00;99400.75;5139384;28;20055;-61
2022/12/31 08:42:09;;;;;;;28.90;14.23;;;;;;;1.03;100.00;99390.19;5139322;28;20133;-63
2022/12/31 08:44:44;;;;;;;25.58;11.18;;;;;;;1.14;100.00;99375.44;5139809;28;20062;-62
2022/12/31 08:47:21;;;;;;;21.33;10.88;;;;;;;0.79;100.00;99385.72;5139557;27;20051;-62
2022/12/31 08:49:47;;;;;;;29.85;12.15;;;;;;;0.90;100.00;99371.00;5138088;27;20047;-62
2022/12/31 08:52:21;;;;;;;37.78;12.70;;;;;;;0.93;100.00;99366.88;5139329;28;20076;-63
2022/12/31 08:54:48;;;;;;;;;;;;;;;0.84;100.00;99352.47;5139641;28;20118;-64
2022/12/31 08:57:27;;;;;;;31.23;13.27;;;;;;;0.95;100.00;99337.69;5139352;28;19929;-61
2022/12/31 09:00:02;;;;;;;35.05;14.73;;;;;;;1.10;100.00;99312.31;5139110;28;20055;-61
2022/12/31 09:02:59;;;;;;;24.27;11.80;;;;;;;0.99;100.00;99316.31;5139446;27;20051;-62
2022/12/31 09:05:31;;;;;;;23.83;12.43;;;;;;;1.13;100.00;99314.41;5135311;28;20058;-62
2022/12/31 09:08:12;;;;;;;17.52;10.75;;;;;;;1.01;100.00;99308.72;5138876;28;20404;-61
2022/12/31 09:10:45;;;;;;;25.08;11.32;;;;;;;1.09;100.00;99299.91;5139073;28;20051;-62
2022/12/31 09:13:18;;;;;;;24.63;12.35;;;;;;;1.06;100.00;99301.31;5138761;28;20455;-62
2022/12/31 09:15:51;;;;;;;26.67;12.15;;;;;;;1.34;100.00;99307.53;5139224;27;20047;-63
2022/12/31 09:18:17;;;;;;;27.30;11.70;;;;;;;1.18;100.00;99306.22;5138488;28;20050;-63
2022/12/31 09:20:44;;;;;;;29.73;12.73;;;;;;;1.40;100.00;99300.16;5139139;28;20043;-62
2022/12/31 09:23:12;;;;;;;30.80;14.55;;;;;;;1.66;100.00;99308.50;5138590;28;20420;-62
2022/12/31 09:25:52;;;;;;;30.10;13.43;;;;;;;1.57;100.00;99334.66;5138871;28;20047;-64
2022/12/31 09:28:41;;;;;;;38.08;12.50;;;;;;;1.53;100.00;99337.13;5138908;27;20055;-62
2022/12/31 09:31:14;;;;;;;25.40;11.63;;;;;;;1.39;100.00;99339.84;5138593;28;20061;-63
2022/12/31 09:33:51;;;;;;;25.67;12.07;;;;;;;1.49;100.00;99338.06;5138754;28;20099;-63
2022/12/31 09:36:25;;;;;;;40.38;12.40;;;;;;;1.64;100.00;99313.44;5138450;28;20047;-63
2022/12/31 09:39:01;;;;;;;24.95;11.32;;;;;;;1.64;100.00;99308.03;5138776;28;20047;-63
2022/12/31 09:42:00;;;;;;;35.60;13.35;;;;;;;1.65;100.00;99310.41;5138704;28;20328;-62
2022/12/31 09:45:04;;;;;;;35.65;13.15;;;;;;;1.74;100.00;99313.22;5138280;28;20061;-63
2022/12/31 09:48:12;;;;;;;26.95;12.48;;;;;;;1.91;100.00;99314.50;5116278;28;20099;-63
2022/12/31 09:50:53;;;;;;;23.98;10.68;;;;;;;1.91;100.00;99328.03;5138485;27;20054;-63
2022/12/31 09:53:44;;;;;;;27.75;13.38;;;;;;;2.06;100.00;99342.00;5138349;28;20051;-62
2022/12/31 09:56:17;;;;;;;24.50;11.88;;;;;;;1.92;100.00;99353.94;5138548;28;20370;-62
2022/12/31 09:58:56;;;;;;;23.38;12.10;;;;;;;1.99;100.00;99343.50;5137918;28;20047;-63
2022/12/31 10:01:35;;;;;;;26.60;10.60;;;;;;;1.99;100.00;99346.22;5137670;27;20055;-63
2022/12/31 10:04:24;;;;;;;26.95;11.02;;;;;;;2.07;100.00;99340.09;5138045;28;20112;-64
2022/12/31 10:07:05;;;;;;;29.42;12.65;;;;;;;2.01;100.00;99344.03;5137788;28;20051;-61
2022/12/31 10:09:55;;;;;;;28.45;11.95;;;;;;;2.03;100.00;99348.03;5138297;28;20054;-62
2022/12/31 10:12:54;;;;;;;20.58;10.48;;;;;;;2.15;100.00;99336.66;5137911;28;20385;-64
2022/12/31 10:15:44;;;;;;;22.98;11.80;;;;;;;2.19;100.00;99332.25;5134045;28;20047;-62
2022/12/31 10:18:22;;;;;;;29.17;12.68;;;;;;;2.09;100.00;99344.09;5138002;28;20076;-63
2022/12/31 10:21:03;;;;;;;31.35;12.23;;;;;;;2.28;100.00;99346.66;5137751;28;20448;-63
2022/12/31 10:23:55;;;;;;;27.25;11.25;;;;;;;2.29;100.00;99348.25;5138088;28;20047;-63
2022/12/31 10:26:42;;;;;;;19.83;11.60;;;;;;;2.44;100.00;99338.19;5136019;27;20051;-62
2022/12/31 10:29:20;;;;;;;25.52;11.38;;;;;;;2.47;100.00;99349.19;5137575;28;20114;-63
2022/12/31 10:31:54;;;;;;;20.95;10.35;;;;;;;2.42;100.00;99349.31;5137906;28;20043;-62
2022/12/31 10:34:26;;;;;;;25.85;12.95;;;;;;;2.64;100.00;99351.25;5137674;28;20119;-62
2022/12/31 10:36:57;;;;;;;29.60;12.75;;;;;;;2.51;100.00;99358.31;5137991;28;20066;-64
2022/12/31 10:39:41;;;;;;;31.98;13.55;;;;;;;2.72;100.00;99368.66;5137415;28;20309;-62
2022/12/31 10:42:51;;;;;;;29.00;12.98;;;;;;;2.54;100.00;99360.41;5137733;28;20065;-64
2022/12/31 10:45:46;;;;;;;22.58;12.70;;;;;;;2.61;100.00;99359.97;5137705;28;20416;-63
2022/12/31 10:48:40;;;;;;;27.35;12.00;;;;;;;2.64;100.00;99342.31;5130109;28;20055;-63
2022/12/31 10:51:39;;;;;;;26.92;12.23;;;;;;;2.95;100.00;99343.16;5128491;28;20199;-63
2022/12/31 10:54:35;;;;;;;30.20;14.60;;;;;;;2.75;100.00;99359.91;5137478;28;20217;-63
2022/12/31 10:57:41;;;;;;;29.67;13.45;;;;;;;2.68;100.00;99341.38;5092927;28;20057;-64
2022/12/31 11:00:17;;;;;;;23.38;12.80;;;;;;;2.51;100.00;99315.00;5137426;28;20054;-64
2022/12/31 11:03:25;;;;;;;24.48;12.07;;;;;;;2.51;100.00;99284.44;5137227;28;20058;-64
2022/12/31 11:06:28;;;;;;;25.10;12.63;;;;;;;2.69;100.00;99252.84;5137058;28;20142;-64
2022/12/31 11:09:40;;;;;;;27.35;12.95;;;;;;;2.58;100.00;99246.91;5137080;28;20434;-61
2022/12/31 11:12:23;;;;;;;25.83;12.55;;;;;;;2.55;100.00;99236.69;5104809;28;20059;-64
2022/12/31 11:15:14;;;;;;;26.27;12.70;;;;;;;2.69;100.00;99242.81;5140222;28;20043;-62
2022/12/31 11:17:53;;;;;;;28.92;13.27;;;;;;;2.70;100.00;99257.97;5141182;28;20047;-64
2022/12/31 11:20:43;;;;;;;24.15;12.35;;;;;;;2.55;100.00;99261.84;5140662;27;20047;-63
2022/12/31 11:23:26;;;;;;;29.52;13.75;;;;;;;2.78;100.00;99245.59;5140540;28;20059;-62
2022/12/31 11:26:04;;;;;;;26.35;13.82;;;;;;;3.11;100.00;99250.66;5140817;28;20115;-63
2022/12/31 11:28:49;;;;;;;24.38;11.70;;;;;;;2.76;100.00;99258.63;5140036;28;20496;-64
2022/12/31 11:31:28;;;;;;;26.40;13.18;;;;;;;2.93;100.00;99269.56;5140917;28;20047;-64
2022/12/31 11:34:19;;;;;;;29.50;12.38;;;;;;;2.94;100.00;99276.56;5140437;28;20043;-65
2022/12/31 11:37:01;;;;;;;23.23;11.80;;;;;;;2.86;100.00;99274.59;5140360;28;20053;-65
2022/12/31 11:39:48;;;;;;;26.90;11.82;;;;;;;2.82;100.00;99277.13;5140683;28;20369;-62
2022/12/31 11:42:39;;;;;;;25.77;12.52;;;;;;;3.00;100.00;99277.22;5140178;28;20051;-64
2022/12/31 11:45:14;;;;;;;26.27;12.63;;;;;;;2.71;100.00;99275.81;5140199;28;20083;-64
2022/12/31 11:47:55;;;;;;;;;;;;;;;2.72;100.00;99266.56;5141014;27;20145;-63